createdAt,value
2024-03-02T00:00:17.991Z,143.34
2024-03-02T00:01:18.101Z,143.24
2024-03-02T00:02:18.073Z,142.97
2024-03-02T00:03:18.110Z,142.93
2024-03-02T00:04:18.164Z,142.55
2024-03-02T00:05:18.237Z,143.99
2024-03-02T00:06:18.274Z,143.79
2024-03-02T00:07:18.289Z,143.64
2024-03-02T00:08:18.367Z,144.32
2024-03-02T00:09:18.429Z,143.21
2024-03-02T00:10:18.444Z,144.28
2024-03-02T00:11:18.554Z,143.96
2024-03-02T00:12:18.604Z,144.02
2024-03-02T00:13:18.594Z,143.41
2024-03-02T00:14:18.684Z,144.61
2024-03-02T00:15:18.736Z,144.02
2024-03-02T00:16:18.790Z,144.82
2024-03-02T00:17:18.832Z,145.51
2024-03-02T00:18:18.864Z,145.16
2024-03-02T00:19:18.910Z,144.09
2024-03-02T00:20:18.968Z,144.84
2024-03-02T00:21:19.045Z,144.04
2024-03-02T00:22:19.057Z,144.74
2024-03-02T00:23:19.121Z,145.60
2024-03-02T00:24:19.231Z,144.68
2024-03-02T00:25:19.214Z,144.41
2024-03-02T00:26:19.274Z,145.27
2024-03-02T00:27:19.367Z,144.28
2024-03-02T00:28:19.440Z,145.59
2024-03-02T00:29:19.411Z,145.48
2024-03-02T00:30:19.634Z,145.01
2024-03-02T00:31:19.552Z,145.08
2024-03-02T00:32:19.590Z,145.40
2024-03-02T00:33:19.691Z,145.39
2024-03-02T00:34:19.708Z,145.45
2024-03-02T00:35:19.842Z,145.09
2024-03-02T00:36:19.849Z,144.88
2024-03-02T00:37:19.886Z,145.79
2024-03-02T00:38:19.936Z,145.83
2024-03-02T00:39:19.973Z,146.63
2024-03-02T00:40:20.042Z,145.87
2024-03-02T00:41:20.091Z,146.11
2024-03-02T00:42:20.137Z,145.64
2024-03-02T00:43:20.157Z,145.71
2024-03-02T00:44:20.241Z,146.73
2024-03-02T00:45:20.321Z,145.37
2024-03-02T00:46:20.554Z,145.75
2024-03-02T00:47:20.399Z,146.85
2024-03-02T00:48:20.477Z,146.87
2024-03-02T00:49:20.476Z,146.51
2024-03-02T00:50:26.936Z,147.50
2024-03-02T00:51:21.561Z,147.54
2024-03-02T00:52:20.546Z,147.53
2024-03-02T00:53:20.546Z,146.39
2024-03-02T00:54:20.589Z,147.25
2024-03-02T00:55:20.553Z,147.41
2024-03-02T00:56:20.531Z,147.20
2024-03-02T00:57:20.575Z,147.27
2024-03-02T00:58:20.541Z,148.12
2024-03-02T00:59:20.587Z,147.90
2024-03-02T01:00:20.605Z,147.48
2024-03-02T01:01:20.542Z,146.98
2024-03-02T01:02:20.606Z,147.79
2024-03-02T01:03:20.689Z,147.39
2024-03-02T01:04:20.708Z,146.62
2024-03-02T01:05:20.771Z,146.75
2024-03-02T01:06:20.892Z,147.11
2024-03-02T01:07:20.890Z,148.44
2024-03-02T01:08:20.936Z,146.77
2024-03-02T01:09:21.022Z,147.97
2024-03-02T01:10:21.060Z,146.99
2024-03-02T01:11:21.249Z,146.69
2024-03-02T01:12:21.238Z,148.29
2024-03-02T01:13:21.282Z,149.10
2024-03-02T01:14:21.337Z,148.52
2024-03-02T01:15:21.402Z,148.85
2024-03-02T01:16:21.485Z,147.96
2024-03-02T01:17:21.519Z,148.74
2024-03-02T01:18:21.591Z,147.50
2024-03-02T01:19:21.663Z,147.93
2024-03-02T01:20:21.681Z,147.95
2024-03-02T01:21:21.777Z,148.50
2024-03-02T01:22:21.818Z,148.68
2024-03-02T01:23:21.904Z,148.99
2024-03-02T01:24:21.986Z,147.69
2024-03-02T01:25:21.994Z,148.74
2024-03-02T01:26:22.094Z,149.24
2024-03-02T01:27:22.109Z,148.80
2024-03-02T01:28:22.252Z,149.39
2024-03-02T01:29:22.241Z,149.13
2024-03-02T01:30:22.346Z,149.23
2024-03-02T01:31:22.367Z,148.57
2024-03-02T01:32:22.431Z,149.54
2024-03-02T01:33:22.584Z,148.75
2024-03-02T01:34:22.579Z,149.33
2024-03-02T01:35:22.605Z,150.22
2024-03-02T01:36:22.730Z,149.50
2024-03-02T01:37:22.736Z,149.45
2024-03-02T01:38:22.831Z,149.99
2024-03-02T01:39:22.913Z,148.58
2024-03-02T01:40:22.931Z,148.48
2024-03-02T01:41:23.027Z,149.24
2024-03-02T01:42:23.081Z,149.25
2024-03-02T01:43:23.141Z,149.96
2024-03-02T01:44:23.242Z,149.18
2024-03-02T01:45:23.354Z,150.47
2024-03-02T01:46:23.340Z,151.13
2024-03-02T01:47:23.406Z,149.29
2024-03-02T01:48:23.469Z,148.64
2024-03-02T01:49:23.482Z,150.99
2024-03-02T01:50:23.544Z,150.33
2024-03-02T01:51:23.655Z,148.58
2024-03-02T01:52:23.657Z,149.59
2024-03-02T01:53:23.727Z,149.82
2024-03-02T01:54:24.518Z,150.48
2024-03-02T01:55:23.886Z,148.42
2024-03-02T01:56:23.947Z,150.28
2024-03-02T01:57:24.047Z,151.10
2024-03-02T01:58:24.053Z,149.57
2024-03-02T01:59:24.122Z,151.23
2024-03-02T02:00:24.178Z,150.17
2024-03-02T02:01:24.306Z,149.83
2024-03-02T02:02:24.342Z,151.25
2024-03-02T02:03:24.399Z,150.60
2024-03-02T02:04:24.472Z,150.95
2024-03-02T02:05:24.520Z,150.89
2024-03-02T02:06:24.623Z,149.74
2024-03-02T02:07:24.724Z,151.73
2024-03-02T02:08:24.738Z,150.80
2024-03-02T02:09:24.793Z,149.71
2024-03-02T02:10:24.819Z,150.64
2024-03-02T02:11:24.916Z,151.43
2024-03-02T02:12:25.020Z,150.88
2024-03-02T02:13:25.024Z,151.05
2024-03-02T02:14:25.097Z,150.81
2024-03-02T02:15:25.325Z,151.62
2024-03-02T02:16:25.223Z,151.87
2024-03-02T02:17:25.326Z,150.87
2024-03-02T02:18:25.401Z,152.36
2024-03-02T02:19:25.456Z,151.94
2024-03-02T02:20:25.664Z,151.21
2024-03-02T02:21:25.578Z,152.73
2024-03-02T02:22:25.640Z,151.69
2024-03-02T02:23:25.693Z,150.69
2024-03-02T02:24:25.840Z,151.61
2024-03-02T02:25:25.830Z,152.68
2024-03-02T02:26:25.898Z,151.82
2024-03-02T02:27:25.986Z,150.78
2024-03-02T02:28:26.038Z,152.12
2024-03-02T02:29:26.110Z,151.96
2024-03-02T02:30:26.210Z,151.46
2024-03-02T02:31:26.214Z,152.94
2024-03-02T02:32:26.300Z,152.32
2024-03-02T02:33:26.552Z,151.02
2024-03-02T02:34:26.438Z,153.39
2024-03-02T02:35:26.496Z,152.52
2024-03-02T02:36:26.573Z,151.68
2024-03-02T02:37:26.632Z,152.09
2024-03-02T02:38:26.721Z,153.18
2024-03-02T02:39:26.792Z,151.79
2024-03-02T02:40:26.817Z,151.80
2024-03-02T02:41:26.867Z,151.91
2024-03-02T02:42:26.960Z,151.08
2024-03-02T02:43:27.050Z,152.08
2024-03-02T02:44:27.099Z,153.11
2024-03-02T02:45:27.194Z,151.32
2024-03-02T02:46:27.226Z,153.66
2024-03-02T02:47:27.328Z,152.83
2024-03-02T02:48:27.440Z,151.89
2024-03-02T02:49:27.433Z,152.65
2024-03-02T02:50:27.515Z,153.07
2024-03-02T02:51:27.632Z,152.35
2024-03-02T02:52:27.647Z,153.97
2024-03-02T02:53:27.699Z,153.48
2024-03-02T02:54:27.792Z,153.75
2024-03-02T02:55:27.824Z,152.62
2024-03-02T02:56:27.943Z,153.81
2024-03-02T02:57:27.974Z,153.64
2024-03-02T02:58:28.016Z,154.29
2024-03-02T02:59:28.125Z,154.03
2024-03-02T03:00:28.235Z,153.39
2024-03-02T03:01:28.388Z,153.91
2024-03-02T03:02:28.330Z,153.96
2024-03-02T03:03:28.398Z,153.05
2024-03-02T03:04:28.445Z,153.75
2024-03-02T03:05:28.531Z,153.37
2024-03-02T03:06:28.635Z,152.49
2024-03-02T03:07:28.678Z,154.50
2024-03-02T03:08:28.696Z,153.68
2024-03-02T03:09:28.798Z,153.08
2024-03-02T03:10:28.904Z,155.27
2024-03-02T03:11:28.983Z,153.50
2024-03-02T03:12:28.974Z,154.73
2024-03-02T03:13:29.029Z,154.80
2024-03-02T03:14:29.131Z,154.34
2024-03-02T03:15:29.243Z,153.27
2024-03-02T03:16:29.273Z,153.91
2024-03-02T03:17:29.345Z,153.37
2024-03-02T03:18:29.411Z,153.92
2024-03-02T03:19:29.471Z,154.42
2024-03-02T03:20:29.508Z,153.38
2024-03-02T03:21:29.665Z,153.93
2024-03-02T03:22:29.630Z,153.35
2024-03-02T03:23:29.711Z,154.68
2024-03-02T03:24:29.795Z,153.97
2024-03-02T03:25:29.842Z,153.71
2024-03-02T03:26:29.909Z,154.44
2024-03-02T03:27:29.997Z,154.10
2024-03-02T03:28:30.065Z,154.16
2024-03-02T03:29:30.160Z,155.12
2024-03-02T03:30:30.306Z,154.64
2024-03-02T03:31:30.264Z,153.63
2024-03-02T03:32:30.323Z,155.00
2024-03-02T03:33:30.454Z,153.86
2024-03-02T03:34:30.539Z,155.16
2024-03-02T03:35:30.570Z,154.34
2024-03-02T03:36:30.627Z,155.41
2024-03-02T03:37:30.674Z,154.35
2024-03-02T03:38:30.740Z,155.22
2024-03-02T03:39:30.850Z,154.49
2024-03-02T03:40:30.890Z,154.34
2024-03-02T03:41:30.953Z,155.09
2024-03-02T03:42:31.042Z,154.93
2024-03-02T03:43:31.071Z,154.44
2024-03-02T03:44:31.192Z,153.45
2024-03-02T03:45:31.234Z,156.29
2024-03-02T03:46:31.317Z,153.76
2024-03-02T03:47:31.437Z,154.89
2024-03-02T03:48:31.501Z,155.08
2024-03-02T03:49:31.499Z,155.69
2024-03-02T03:50:31.518Z,155.20
2024-03-02T03:51:31.674Z,156.10
2024-03-02T03:52:31.628Z,154.50
2024-03-02T03:53:31.723Z,156.19
2024-03-02T03:54:31.809Z,154.91
2024-03-02T03:55:31.836Z,155.25
2024-03-02T03:56:31.905Z,154.25
2024-03-02T03:57:32.007Z,155.77
2024-03-02T03:58:32.067Z,155.59
2024-03-02T03:59:32.101Z,155.37
2024-03-02T04:00:32.209Z,156.82
2024-03-02T04:01:32.260Z,155.16
2024-03-02T04:02:32.325Z,156.63
2024-03-02T04:03:32.400Z,156.38
2024-03-02T04:04:32.424Z,155.89
2024-03-02T04:05:32.481Z,155.78
2024-03-02T04:06:32.572Z,156.45
2024-03-02T04:07:39.732Z,50.00
2024-03-02T04:08:39.669Z,50.00
2024-03-02T04:09:39.747Z,50.00
2024-03-02T04:10:39.671Z,50.00
2024-03-02T04:11:39.706Z,50.00
2024-03-02T04:12:39.822Z,50.39
2024-03-02T04:13:39.692Z,50.45
2024-03-02T04:14:39.691Z,51.03
2024-03-02T04:15:39.741Z,50.91
2024-03-02T04:16:39.703Z,51.94
2024-03-02T04:17:39.777Z,50.12
2024-03-02T04:18:39.763Z,50.39
2024-03-02T04:19:39.710Z,51.79
2024-03-02T04:20:39.711Z,51.11
2024-03-02T04:21:39.771Z,52.26
2024-03-02T04:22:39.691Z,50.63
2024-03-02T04:23:39.741Z,50.53
2024-03-02T04:24:39.782Z,50.93
2024-03-02T04:25:39.696Z,51.11
2024-03-02T04:26:39.718Z,50.19
2024-03-02T04:27:39.765Z,51.65
2024-03-02T04:28:39.734Z,51.99
2024-03-02T04:29:39.824Z,50.86
2024-03-02T04:30:46.987Z,50.00
2024-03-02T04:31:54.133Z,50.00
2024-03-02T04:32:54.129Z,50.00
2024-03-02T04:33:54.108Z,50.00
2024-03-02T04:34:54.129Z,50.00
2024-03-02T04:35:54.123Z,50.00
2024-03-02T04:36:54.140Z,50.00
2024-03-02T04:37:54.086Z,50.46
2024-03-02T04:38:54.136Z,50.67
2024-03-02T04:39:54.140Z,50.00
2024-03-02T04:40:54.136Z,51.09
2024-03-02T04:41:54.117Z,50.46
2024-03-02T04:42:54.246Z,51.00
2024-03-02T04:43:54.129Z,50.36
2024-03-02T04:44:54.142Z,50.78
2024-03-02T04:45:54.203Z,51.08
2024-03-02T04:46:54.127Z,50.56
2024-03-02T04:47:54.097Z,51.22
2024-03-02T04:48:54.204Z,51.24
2024-03-02T04:49:54.126Z,50.57
2024-03-02T04:50:54.112Z,50.15
2024-03-02T04:51:54.202Z,50.46
2024-03-02T04:52:54.199Z,51.91
2024-03-02T04:53:54.284Z,50.59
2024-03-02T04:54:54.376Z,51.22
2024-03-02T04:55:54.400Z,52.22
2024-03-02T04:56:54.484Z,51.01
2024-03-02T04:57:54.573Z,51.24
2024-03-02T04:58:54.617Z,52.30
2024-03-02T04:59:54.673Z,51.37
2024-03-02T05:00:54.822Z,51.65
2024-03-02T05:01:54.871Z,51.50
2024-03-02T05:02:54.879Z,52.33
2024-03-02T05:03:55.063Z,50.86
2024-03-02T05:04:55.021Z,51.65
2024-03-02T05:05:55.076Z,51.26
2024-03-02T05:06:55.214Z,52.48
2024-03-02T05:07:55.183Z,52.17
2024-03-02T05:08:55.246Z,51.57
2024-03-02T05:09:55.371Z,52.08
2024-03-02T05:10:55.415Z,52.84
2024-03-02T05:11:55.722Z,50.64
2024-03-02T05:12:55.599Z,52.68
2024-03-02T05:13:55.591Z,52.37
2024-03-02T05:14:55.640Z,51.73
2024-03-02T05:15:55.711Z,51.55
2024-03-02T05:16:55.762Z,52.20
2024-03-02T05:17:55.840Z,52.54
2024-03-02T05:18:55.966Z,53.95
2024-03-02T05:19:55.950Z,51.23
2024-03-02T05:20:56.039Z,53.92
2024-03-02T05:21:56.164Z,52.93
2024-03-02T05:22:56.142Z,51.84
2024-03-02T05:23:56.219Z,52.15
2024-03-02T05:24:56.278Z,52.92
2024-03-02T05:25:56.307Z,52.60
2024-03-02T05:26:56.401Z,52.32
2024-03-02T05:27:56.475Z,52.85
2024-03-02T05:28:56.476Z,51.81
2024-03-02T05:29:56.586Z,53.55
2024-03-02T05:30:56.697Z,52.46
2024-03-02T05:31:56.773Z,52.47
2024-03-02T05:32:56.748Z,52.92
2024-03-02T05:33:58.137Z,52.53
2024-03-02T05:34:56.897Z,53.26
2024-03-02T05:35:56.942Z,53.67
2024-03-02T05:36:57.091Z,52.61
2024-03-02T05:37:57.099Z,53.76
2024-03-02T05:38:57.139Z,53.98
2024-03-02T05:39:57.247Z,52.05
2024-03-02T05:40:57.261Z,54.38
2024-03-02T05:41:57.252Z,52.83
2024-03-02T05:42:57.383Z,52.58
2024-03-02T05:43:57.372Z,53.53
2024-03-02T05:44:57.453Z,53.17
2024-03-02T05:45:57.460Z,51.91
2024-03-02T05:46:57.488Z,53.49
2024-03-02T05:47:57.600Z,52.59
2024-03-02T05:48:57.714Z,51.87
2024-03-02T05:49:57.647Z,54.04
2024-03-02T05:50:57.704Z,51.48
2024-03-02T05:51:57.744Z,52.80
2024-03-02T05:52:57.753Z,54.56
2024-03-02T05:53:57.827Z,53.04
2024-03-02T05:54:57.935Z,52.60
2024-03-02T05:55:57.887Z,53.12
2024-03-02T05:56:57.958Z,54.12
2024-03-02T05:57:58.048Z,54.15
2024-03-02T05:58:58.048Z,54.46
2024-03-02T05:59:58.091Z,52.54
2024-03-02T06:00:58.236Z,52.83
2024-03-02T06:01:58.286Z,53.00
2024-03-02T06:02:58.211Z,53.39
2024-03-02T06:03:58.354Z,53.36
2024-03-02T06:04:58.308Z,52.00
2024-03-02T06:05:58.328Z,54.20
2024-03-02T06:06:58.483Z,54.88
2024-03-02T06:07:58.476Z,53.68
2024-03-02T06:08:58.496Z,53.36
2024-03-02T06:09:58.650Z,54.54
2024-03-02T06:10:58.631Z,53.53
2024-03-02T06:11:58.696Z,55.12
2024-03-02T06:12:58.824Z,54.32
2024-03-02T06:13:58.820Z,54.98
2024-03-02T06:14:58.919Z,52.86
2024-03-02T06:15:59.037Z,54.09
2024-03-02T06:16:59.023Z,55.07
2024-03-02T06:17:59.091Z,54.01
2024-03-02T06:18:59.168Z,53.36
2024-03-02T06:19:59.206Z,53.67
2024-03-02T06:20:59.277Z,54.63
2024-03-02T06:21:59.426Z,54.13
2024-03-02T06:22:59.404Z,54.30
2024-03-02T06:23:59.505Z,54.80
2024-03-02T06:24:59.658Z,55.14
2024-03-02T06:25:59.589Z,55.24
2024-03-02T06:26:59.705Z,54.49
2024-03-02T06:27:59.900Z,54.76
2024-03-02T06:28:59.792Z,54.66
2024-03-02T06:29:59.869Z,56.35
2024-03-02T06:31:00.005Z,55.09
2024-03-02T06:32:00.018Z,55.37
2024-03-02T06:33:00.151Z,56.61
2024-03-02T06:34:00.201Z,55.90
2024-03-02T06:35:00.213Z,57.25
2024-03-02T06:36:00.304Z,55.98
2024-03-02T06:37:00.402Z,56.11
2024-03-02T06:38:00.428Z,57.27
2024-03-02T06:39:00.508Z,56.70
2024-03-02T06:40:00.679Z,56.27
2024-03-02T06:41:00.647Z,56.91
2024-03-02T06:42:00.705Z,56.34
2024-03-02T06:43:00.847Z,57.97
2024-03-02T06:44:01.251Z,57.47
2024-03-02T06:45:00.861Z,57.34
2024-03-02T06:46:01.040Z,57.17
2024-03-02T06:47:01.026Z,57.58
2024-03-02T06:48:01.146Z,57.29
2024-03-02T06:49:01.198Z,57.66
2024-03-02T06:50:01.212Z,57.64
2024-03-02T06:51:01.299Z,57.23
2024-03-02T06:52:01.392Z,58.60
2024-03-02T06:53:01.393Z,58.65
2024-03-02T06:54:01.422Z,59.03
2024-03-02T06:55:01.581Z,58.90
2024-03-02T06:56:01.602Z,59.43
2024-03-02T06:57:01.679Z,58.00
2024-03-02T06:58:01.888Z,58.56
2024-03-02T06:59:01.754Z,59.32
2024-03-02T07:00:01.802Z,59.77
2024-03-02T07:01:01.977Z,58.71
2024-03-02T07:02:01.975Z,57.08
2024-03-02T07:03:01.944Z,53.86
2024-03-02T07:04:02.107Z,53.46
2024-03-02T07:05:02.064Z,52.62
2024-03-02T07:06:02.123Z,50.53
2024-03-02T07:07:02.238Z,51.23
2024-03-02T07:08:02.173Z,50.35
2024-03-02T07:09:02.250Z,50.25
2024-03-02T07:10:02.442Z,51.31
2024-03-02T07:11:02.416Z,51.84
2024-03-02T07:12:02.341Z,51.45
2024-03-02T07:13:02.466Z,51.23
2024-03-02T07:14:02.412Z,51.43
2024-03-02T07:15:02.460Z,52.17
2024-03-02T07:16:02.589Z,52.58
2024-03-02T07:17:02.508Z,53.70
2024-03-02T07:18:02.520Z,53.00
2024-03-02T07:19:03.064Z,54.96
2024-03-02T07:20:02.527Z,56.42
2024-03-02T07:21:02.695Z,57.30
2024-03-02T07:22:02.615Z,58.19
2024-03-02T07:23:02.595Z,57.15
2024-03-02T07:24:02.598Z,59.15
2024-03-02T07:25:02.676Z,59.52
2024-03-02T07:27:04.584Z,59.58
2024-03-02T07:28:02.650Z,59.64
2024-03-02T07:29:02.639Z,60.09
2024-03-02T07:30:02.589Z,60.25
2024-03-02T07:31:02.873Z,60.29
2024-03-02T07:32:02.605Z,60.84
2024-03-02T07:33:02.646Z,63.39
2024-03-02T07:34:02.684Z,60.66
2024-03-02T07:35:02.596Z,59.50
2024-03-02T07:36:04.433Z,58.71
2024-03-02T07:37:02.806Z,58.84
2024-03-02T07:38:02.841Z,59.16
2024-03-02T07:39:02.881Z,59.72
2024-03-02T07:40:03.029Z,60.00
2024-03-02T07:41:03.022Z,62.78
2024-03-02T07:42:03.087Z,60.24
2024-03-02T07:43:03.133Z,63.84
2024-03-02T07:44:03.193Z,63.80
2024-03-02T07:45:03.199Z,64.41
2024-03-02T07:46:03.357Z,65.82
2024-03-02T07:47:03.316Z,66.79
2024-03-02T07:48:03.360Z,63.14
2024-03-02T07:49:03.440Z,62.50
2024-03-02T07:50:03.433Z,62.33
2024-03-02T07:51:03.502Z,62.76
2024-03-02T07:52:03.580Z,62.65
2024-03-02T07:53:03.609Z,62.99
2024-03-02T07:54:03.620Z,64.84
2024-03-02T07:55:03.644Z,65.16
2024-03-02T07:56:03.976Z,62.03
2024-03-02T07:57:03.742Z,64.95
2024-03-02T07:58:03.925Z,60.94
2024-03-02T07:59:03.815Z,60.00
2024-03-02T08:00:03.839Z,62.13
2024-03-02T08:01:04.043Z,60.56
2024-03-02T08:02:03.906Z,58.85
2024-03-02T08:03:03.915Z,61.51
2024-03-02T08:04:04.154Z,56.70
2024-03-02T08:05:03.956Z,57.40
2024-03-02T08:06:04.014Z,57.97
2024-03-02T08:07:04.180Z,57.45
2024-03-02T08:08:04.078Z,60.54
2024-03-02T08:09:04.040Z,58.93
2024-03-02T08:10:04.120Z,57.37
2024-03-02T08:11:04.132Z,56.05
2024-03-02T08:12:04.108Z,55.01
2024-03-02T08:13:04.245Z,56.39
2024-03-02T08:14:04.137Z,56.71
2024-03-02T08:15:04.132Z,53.29
2024-03-02T08:16:04.159Z,56.49
2024-03-02T08:17:04.152Z,53.61
2024-03-02T08:18:04.181Z,56.05
2024-03-02T08:19:04.317Z,55.17
2024-03-02T08:20:04.160Z,53.02
2024-03-02T08:21:04.182Z,53.36
2024-03-02T08:22:04.266Z,53.48
2024-03-02T08:23:04.185Z,52.15
2024-03-02T08:24:04.212Z,51.92
2024-03-02T08:25:04.269Z,52.49
2024-03-02T08:26:04.243Z,52.97
2024-03-02T08:27:04.302Z,51.64
2024-03-02T08:28:04.453Z,50.57
2024-03-02T08:29:04.364Z,51.36
2024-03-02T08:30:04.427Z,50.93
2024-03-02T08:31:04.568Z,54.08
2024-03-02T08:32:04.535Z,51.70
2024-03-02T08:33:04.592Z,50.96
2024-03-02T08:34:04.673Z,53.51
2024-03-02T08:35:04.690Z,52.01
2024-03-02T08:36:04.730Z,50.87
2024-03-02T08:37:04.848Z,50.49
2024-03-02T08:38:04.838Z,50.69
2024-03-02T08:39:04.846Z,51.28
2024-03-02T08:40:04.936Z,50.54
2024-03-02T08:41:04.951Z,50.00
2024-03-02T08:42:04.995Z,50.00
2024-03-02T08:43:05.102Z,50.00
2024-03-02T08:44:05.013Z,50.89
2024-03-02T08:45:05.043Z,50.00
2024-03-02T08:46:05.117Z,50.52
2024-03-02T08:47:05.065Z,51.80
2024-03-02T08:48:05.107Z,50.00
2024-03-02T08:49:05.154Z,50.04
2024-03-02T08:50:05.099Z,51.18
2024-03-02T08:51:05.141Z,49.56
2024-03-02T08:52:05.184Z,52.23
2024-03-02T08:53:05.174Z,50.58
2024-03-02T08:54:05.180Z,50.43
2024-03-02T08:55:05.306Z,51.44
2024-03-02T08:56:05.277Z,50.82
2024-03-02T08:57:05.301Z,52.71
2024-03-02T08:58:05.507Z,50.00
2024-03-02T08:59:05.337Z,50.00
2024-03-02T09:00:05.391Z,50.51
2024-03-02T09:01:05.722Z,51.23
2024-03-02T09:02:05.493Z,50.00
2024-03-02T09:03:05.549Z,53.01
2024-03-02T09:04:05.791Z,50.15
2024-03-02T09:05:05.663Z,50.25
2024-03-02T09:06:05.702Z,50.65
2024-03-02T09:07:05.810Z,50.00
2024-03-02T09:08:05.797Z,50.75
2024-03-02T09:09:05.830Z,53.22
2024-03-02T09:10:06.064Z,50.00
2024-03-02T09:11:05.956Z,54.38
2024-03-02T09:12:06.098Z,53.39
2024-03-02T09:13:06.154Z,52.78
2024-03-02T09:14:06.193Z,53.25
2024-03-02T09:15:06.209Z,53.12
2024-03-02T09:16:06.395Z,56.27
2024-03-02T09:17:06.321Z,57.67
2024-03-02T09:18:06.419Z,56.87
2024-03-02T09:19:06.611Z,60.12
2024-03-02T09:20:06.469Z,63.35
2024-03-02T09:21:06.475Z,64.41
2024-03-02T09:22:06.574Z,66.13
2024-03-02T09:23:06.554Z,67.25
2024-03-02T09:24:06.526Z,70.06
2024-03-02T09:25:06.557Z,71.31
2024-03-02T09:26:06.550Z,75.61
2024-03-02T09:27:06.590Z,77.61
2024-03-02T09:28:06.860Z,81.99
2024-03-02T09:29:06.704Z,82.36
2024-03-02T09:30:06.729Z,89.68
2024-03-02T09:31:06.793Z,87.83
2024-03-02T09:32:06.824Z,92.41
2024-03-02T09:34:06.979Z,93.74
2024-03-02T09:35:06.855Z,94.76
2024-03-02T09:36:06.904Z,97.24
2024-03-02T09:37:06.911Z,97.72
2024-03-02T09:38:06.884Z,96.63
2024-03-02T09:39:06.884Z,98.13
2024-03-02T09:40:06.906Z,96.09
2024-03-02T09:41:07.588Z,99.14
2024-03-02T09:42:06.884Z,99.57
2024-03-02T09:43:07.048Z,99.60
2024-03-02T09:44:06.888Z,99.96
2024-03-02T09:45:06.896Z,99.79
2024-03-02T09:46:06.996Z,98.12
2024-03-02T09:47:06.905Z,97.73
2024-03-02T09:48:06.917Z,95.01
2024-03-02T09:49:06.866Z,91.90
2024-03-02T09:50:06.870Z,92.51
2024-03-02T09:51:06.920Z,89.19
2024-03-02T09:52:06.922Z,86.25
2024-03-02T09:53:06.881Z,87.54
2024-03-02T09:54:13.426Z,83.75
2024-03-02T09:55:07.983Z,83.89
2024-03-02T09:56:06.895Z,84.02
2024-03-02T09:57:06.885Z,84.77
2024-03-02T09:58:06.981Z,84.94
2024-03-02T09:59:06.919Z,83.18
2024-03-02T10:00:06.879Z,84.56
2024-03-02T10:01:07.003Z,85.74
2024-03-02T10:02:06.886Z,82.04
2024-03-02T10:03:06.902Z,83.46
2024-03-02T10:04:06.975Z,82.50
2024-03-02T10:05:06.986Z,79.83
2024-03-02T10:06:07.099Z,80.69
2024-03-02T10:07:07.086Z,76.28
2024-03-02T10:08:07.159Z,71.29
2024-03-02T10:09:07.162Z,67.64
2024-03-02T10:10:07.253Z,62.12
2024-03-02T10:11:07.270Z,56.18
2024-03-02T10:12:07.319Z,53.43
2024-03-02T10:13:07.360Z,50.41
2024-03-02T10:14:07.386Z,51.16
2024-03-02T10:15:07.456Z,50.80
2024-03-02T10:16:07.516Z,49.21
2024-03-02T10:17:07.430Z,50.38
2024-03-02T10:18:07.423Z,50.85
2024-03-02T10:19:07.409Z,50.39
2024-03-02T10:20:07.439Z,50.66
2024-03-02T10:21:07.421Z,50.49
2024-03-02T10:22:07.632Z,51.45
2024-03-02T10:23:07.498Z,51.03
2024-03-02T10:24:07.444Z,51.88
2024-03-02T10:25:22.020Z,52.93
2024-03-02T10:26:09.455Z,49.73
2024-03-02T10:27:07.471Z,50.32
2024-03-02T10:28:07.520Z,43.76
2024-03-02T10:29:07.440Z,41.65
2024-03-02T10:30:07.468Z,38.24
2024-03-02T10:31:08.282Z,51.89
2024-03-02T10:32:07.446Z,51.39
2024-03-02T10:33:07.510Z,50.14
2024-03-02T10:34:07.523Z,50.28
2024-03-02T10:35:07.568Z,54.07
2024-03-02T10:36:07.580Z,55.29
2024-03-02T10:37:07.758Z,52.08
2024-03-02T10:38:07.745Z,50.23
2024-03-02T10:39:07.817Z,53.14
2024-03-02T10:40:07.875Z,56.13
2024-03-02T10:41:07.887Z,67.70
2024-03-02T10:42:07.979Z,79.82
2024-03-02T10:43:08.059Z,82.73
2024-03-02T10:44:08.101Z,79.56
2024-03-02T10:45:08.144Z,81.08
2024-03-02T10:46:08.257Z,81.49
2024-03-02T10:47:08.306Z,83.23
2024-03-02T10:48:08.357Z,81.75
2024-03-02T10:49:09.457Z,78.23
2024-03-02T10:50:08.446Z,78.60
2024-03-02T10:51:08.442Z,78.91
2024-03-02T10:52:08.517Z,82.08
2024-03-02T10:53:08.516Z,83.85
2024-03-02T10:54:08.588Z,81.51
2024-03-02T10:55:08.613Z,82.60
2024-03-02T10:56:08.635Z,77.80
2024-03-02T10:57:08.627Z,74.48
2024-03-02T10:58:08.843Z,70.00
2024-03-02T10:59:08.708Z,64.50
2024-03-02T11:00:08.758Z,57.76
2024-03-02T11:01:08.876Z,51.74
2024-03-02T11:02:08.875Z,51.57
2024-03-02T11:03:08.882Z,50.42
2024-03-02T11:04:08.946Z,50.60
2024-03-02T11:05:08.994Z,53.53
2024-03-02T11:06:09.042Z,53.58
2024-03-02T11:07:09.154Z,51.71
2024-03-02T11:08:09.157Z,51.79
2024-03-02T11:09:09.188Z,54.93
2024-03-02T11:10:09.347Z,54.23
2024-03-02T11:11:09.325Z,55.70
2024-03-02T11:12:09.357Z,57.71
2024-03-02T11:13:09.489Z,58.28
2024-03-02T11:14:09.675Z,52.95
2024-03-02T11:15:09.498Z,49.94
2024-03-02T11:16:09.573Z,52.44
2024-03-02T11:17:09.546Z,53.70
2024-03-02T11:18:09.617Z,52.58
2024-03-02T11:19:09.640Z,50.72
2024-03-02T11:20:09.676Z,54.40
2024-03-02T11:21:09.707Z,69.91
2024-03-02T11:22:09.859Z,77.50
2024-03-02T11:23:09.821Z,86.24
2024-03-02T11:24:09.854Z,90.11
2024-03-02T11:25:10.057Z,100.08
2024-03-02T11:26:10.066Z,102.42
2024-03-02T11:27:10.047Z,107.00
2024-03-02T11:28:10.215Z,110.44
2024-03-02T11:29:10.150Z,117.10
2024-03-02T11:30:11.687Z,119.31
2024-03-02T11:31:10.270Z,120.43
2024-03-02T11:32:10.291Z,124.69
2024-03-02T11:33:12.135Z,125.41
2024-03-02T11:34:10.365Z,128.38
2024-03-02T11:35:10.302Z,127.50
2024-03-02T11:36:12.429Z,126.29
2024-03-02T11:37:10.374Z,125.48
2024-03-02T11:38:10.339Z,125.53
2024-03-02T11:39:10.385Z,125.77
2024-03-02T11:40:10.374Z,123.97
2024-03-02T11:41:10.448Z,124.10
2024-03-02T11:42:10.381Z,118.81
2024-03-02T11:43:10.562Z,121.76
2024-03-02T11:44:10.442Z,117.11
2024-03-02T11:45:10.494Z,116.70
2024-03-02T11:46:10.831Z,110.46
2024-03-02T11:47:10.611Z,107.68
2024-03-02T11:48:10.705Z,101.57
2024-03-02T11:49:10.779Z,101.16
2024-03-02T11:50:10.796Z,96.89
2024-03-02T11:51:10.870Z,92.52
2024-03-02T11:52:11.003Z,88.89
2024-03-02T11:53:11.022Z,85.18
2024-03-02T11:54:11.079Z,81.11
2024-03-02T11:55:11.186Z,76.07
2024-03-02T11:56:11.206Z,76.24
2024-03-02T11:57:11.302Z,74.04
2024-03-02T11:58:11.389Z,69.23
2024-03-02T11:59:11.403Z,66.99
2024-03-02T12:00:11.473Z,61.95
2024-03-02T12:01:11.602Z,57.69
2024-03-02T12:02:11.596Z,54.29
2024-03-02T12:03:11.654Z,54.02
2024-03-02T12:04:11.734Z,52.05
2024-03-02T12:05:11.749Z,51.75
2024-03-02T12:06:11.802Z,51.77
2024-03-02T12:07:11.829Z,52.98
2024-03-02T12:08:11.892Z,52.86
2024-03-02T12:09:11.952Z,57.63
2024-03-02T12:10:12.008Z,62.69
2024-03-02T12:11:13.299Z,67.39
2024-03-02T12:12:12.021Z,71.14
2024-03-02T12:13:12.113Z,74.27
2024-03-02T12:14:12.056Z,81.48
2024-03-02T12:15:12.096Z,84.95
2024-03-02T12:16:12.183Z,90.81
2024-03-02T12:17:13.430Z,93.70
2024-03-02T12:18:12.167Z,98.09
2024-03-02T12:19:12.189Z,103.03
2024-03-02T12:20:12.122Z,108.68
2024-03-02T12:21:12.100Z,114.49
2024-03-02T12:22:12.100Z,117.43
2024-03-02T12:23:14.251Z,121.96
2024-03-02T12:24:12.135Z,122.15
2024-03-02T12:25:12.197Z,123.79
2024-03-02T12:26:12.128Z,126.73
2024-03-02T12:27:12.141Z,133.93
2024-03-02T12:28:12.162Z,144.05
2024-03-02T12:29:12.122Z,148.29
2024-03-02T12:30:12.134Z,151.49
2024-03-02T12:31:12.208Z,153.38
2024-03-02T12:32:12.106Z,158.94
2024-03-02T12:33:12.144Z,162.98
2024-03-02T12:34:12.177Z,166.54
2024-03-02T12:35:13.315Z,167.52
2024-03-02T12:36:12.123Z,171.11
2024-03-02T12:37:12.152Z,174.76
2024-03-02T12:38:12.262Z,176.61
2024-03-02T12:39:12.148Z,179.89
2024-03-02T12:40:12.195Z,181.07
2024-03-02T12:41:12.134Z,182.90
2024-03-02T12:42:12.143Z,183.89
2024-03-02T12:43:12.250Z,187.21
2024-03-02T12:44:12.143Z,188.57
2024-03-02T12:45:12.126Z,188.56
2024-03-02T12:46:12.170Z,192.75